createdAt,value
2022-11-07T00:02:17.673Z,11.59
2022-11-07T00:04:44.372Z,11.54
2022-11-07T00:07:11.106Z,11.56
2022-11-07T00:09:37.765Z,11.60
2022-11-07T00:12:04.392Z,11.58
2022-11-07T00:14:33.240Z,11.59
2022-11-07T00:16:59.818Z,11.60
2022-11-07T00:19:26.337Z,11.62
2022-11-07T00:21:52.809Z,11.63
2022-11-07T00:24:21.878Z,11.62
2022-11-07T00:26:48.494Z,11.61
2022-11-07T00:29:18.123Z,11.61
2022-11-07T00:31:44.945Z,11.55
2022-11-07T00:34:11.914Z,11.57
2022-11-07T00:36:38.652Z,11.61
2022-11-07T00:39:05.576Z,11.66
2022-11-07T00:41:32.636Z,11.71
2022-11-07T00:44:01.458Z,11.76
2022-11-07T00:46:28.005Z,11.80
2022-11-07T00:48:54.891Z,11.83
2022-11-07T00:51:22.846Z,11.86
2022-11-07T00:53:51.920Z,11.84
2022-11-07T00:56:26.214Z,11.89
2022-11-07T00:59:01.930Z,11.93
2022-11-07T01:01:32.422Z,11.96
2022-11-07T01:04:18.147Z,11.94
2022-11-07T01:06:45.326Z,11.89
2022-11-07T01:09:12.741Z,11.88
2022-11-07T01:11:41.731Z,11.86
2022-11-07T01:14:08.447Z,11.91
2022-11-07T01:16:35.536Z,11.95
2022-11-07T01:19:05.199Z,12.00
2022-11-07T01:21:31.763Z,12.02
2022-11-07T01:23:58.417Z,12.08
2022-11-07T01:26:24.953Z,12.12
2022-11-07T01:28:51.504Z,12.09
2022-11-07T01:31:18.221Z,12.05
2022-11-07T01:33:44.857Z,11.90
2022-11-07T01:36:12.620Z,11.78
2022-11-07T01:38:42.001Z,11.81
2022-11-07T01:41:22.194Z,11.86
2022-11-07T01:43:48.685Z,11.93
2022-11-07T01:46:15.232Z,11.99
2022-11-07T01:48:44.865Z,12.04
2022-11-07T01:51:11.526Z,11.97
2022-11-07T01:53:40.424Z,12.02
2022-11-07T01:56:08.137Z,12.08
2022-11-07T01:58:35.032Z,12.13
2022-11-07T02:01:02.485Z,12.18
2022-11-07T02:03:29.037Z,12.20
2022-11-07T02:05:57.656Z,12.22
2022-11-07T02:08:27.359Z,12.20
2022-11-07T02:10:53.963Z,12.14
2022-11-07T02:13:23.859Z,12.18
2022-11-07T02:15:52.608Z,12.22
2022-11-07T02:18:19.134Z,12.28
2022-11-07T02:20:46.492Z,12.28
2022-11-07T02:23:18.377Z,12.25
2022-11-07T02:25:47.369Z,12.30
2022-11-07T02:28:13.865Z,12.33
2022-11-07T02:30:40.468Z,12.35
2022-11-07T02:33:16.974Z,12.39
2022-11-07T02:35:44.878Z,12.42
2022-11-07T02:38:17.701Z,12.45
2022-11-07T02:40:47.892Z,12.44
2022-11-07T02:43:14.860Z,12.44
2022-11-07T02:45:42.415Z,12.47
2022-11-07T02:48:08.909Z,12.48
2022-11-07T02:50:35.441Z,12.47
2022-11-07T02:53:04.306Z,12.49
2022-11-07T02:55:30.809Z,12.50
2022-11-07T02:58:02.213Z,12.44
2022-11-07T03:00:28.730Z,12.47
2022-11-07T03:02:55.379Z,12.52
2022-11-07T03:05:22.445Z,12.53
2022-11-07T03:07:49.212Z,12.56
2022-11-07T03:10:17.156Z,12.59
2022-11-07T03:12:46.039Z,12.61
2022-11-07T03:15:13.202Z,12.62
2022-11-07T03:17:40.055Z,12.63
2022-11-07T03:20:10.434Z,12.65
2022-11-07T03:22:37.028Z,12.67
2022-11-07T03:25:03.817Z,12.64
2022-11-07T03:27:30.372Z,12.62
2022-11-07T03:29:58.917Z,12.62
2022-11-07T03:32:25.492Z,12.65
2022-11-07T03:34:52.051Z,12.67
2022-11-07T03:37:20.938Z,12.69
2022-11-07T03:39:47.503Z,12.72
2022-11-07T03:42:14.107Z,12.76
2022-11-07T03:44:47.437Z,12.77
2022-11-07T03:47:16.325Z,12.76
2022-11-07T03:49:42.857Z,12.77
2022-11-07T03:52:11.958Z,12.81
2022-11-07T03:54:38.548Z,12.69
2022-11-07T03:57:05.426Z,12.64
2022-11-07T03:59:34.375Z,12.62
2022-11-07T04:02:01.083Z,12.59
2022-11-07T04:04:30.345Z,12.53
2022-11-07T04:06:56.909Z,12.39
2022-11-07T04:09:23.444Z,12.18
2022-11-07T04:12:11.737Z,12.17
2022-11-07T04:14:59.211Z,12.19
2022-11-07T04:17:28.286Z,12.20
2022-11-07T04:19:56.000Z,12.13
2022-11-07T04:22:25.975Z,12.10
2022-11-07T04:24:54.777Z,12.08
2022-11-07T04:27:40.165Z,12.09
2022-11-07T04:30:20.228Z,12.24
2022-11-07T04:32:47.268Z,12.39
2022-11-07T04:35:13.904Z,12.46
2022-11-07T04:37:40.913Z,12.57
2022-11-07T04:40:08.051Z,12.62
2022-11-07T04:42:36.896Z,12.72
2022-11-07T04:45:04.153Z,12.78
2022-11-07T04:47:31.090Z,12.82
2022-11-07T04:50:00.027Z,12.89
2022-11-07T04:52:28.872Z,12.94
2022-11-07T04:54:56.132Z,12.99
2022-11-07T04:57:25.134Z,13.03
2022-11-07T04:59:52.238Z,13.07
2022-11-07T05:02:18.924Z,13.05
2022-11-07T05:04:45.772Z,13.00
2022-11-07T05:07:14.786Z,12.90
2022-11-07T05:09:43.417Z,12.88
2022-11-07T05:12:10.649Z,12.90
2022-11-07T05:14:39.723Z,12.91
2022-11-07T05:17:06.555Z,12.73
2022-11-07T05:19:33.143Z,12.56
2022-11-07T05:22:20.005Z,12.47
2022-11-07T05:24:49.458Z,12.52
2022-11-07T05:27:19.960Z,12.32
2022-11-07T05:29:47.111Z,12.25
2022-11-07T05:32:14.044Z,12.22
2022-11-07T05:34:45.900Z,12.23
2022-11-07T05:37:15.097Z,12.19
2022-11-07T05:39:41.739Z,12.27
2022-11-07T05:42:10.931Z,12.41
2022-11-07T05:44:39.825Z,12.57
2022-11-07T05:47:08.848Z,12.67
2022-11-07T05:49:35.873Z,12.76
2022-11-07T05:52:02.509Z,12.82
2022-11-07T05:54:30.373Z,12.90
2022-11-07T05:56:58.029Z,12.97
2022-11-07T05:59:24.821Z,13.04
2022-11-07T06:01:54.554Z,13.08
2022-11-07T06:04:21.411Z,13.14
2022-11-07T06:06:48.485Z,13.16
2022-11-07T06:09:15.595Z,13.17
2022-11-07T06:11:42.289Z,13.21
2022-11-07T06:14:09.042Z,13.25
2022-11-07T06:16:38.638Z,13.29
2022-11-07T06:19:11.507Z,13.32
2022-11-07T06:21:41.706Z,13.35
2022-11-07T06:24:17.381Z,13.26
2022-11-07T06:26:46.679Z,13.20
2022-11-07T06:29:21.833Z,13.26
2022-11-07T06:31:50.331Z,13.28
2022-11-07T06:34:20.882Z,13.32
2022-11-07T06:36:54.098Z,13.37
2022-11-07T06:39:26.651Z,13.42
2022-11-07T06:41:55.732Z,13.50
2022-11-07T06:44:22.232Z,13.58
2022-11-07T06:46:48.751Z,13.68
2022-11-07T06:49:17.730Z,13.69
2022-11-07T06:51:47.892Z,13.63
2022-11-07T06:54:17.392Z,13.46
2022-11-07T06:56:46.334Z,13.29
2022-11-07T06:59:12.960Z,13.42
2022-11-07T07:01:39.643Z,13.46
2022-11-07T07:04:06.235Z,13.49
2022-11-07T07:06:37.997Z,13.60
2022-11-07T07:09:06.818Z,13.70
2022-11-07T07:11:35.541Z,13.82
2022-11-07T07:14:08.679Z,13.88
2022-11-07T07:16:38.307Z,13.91
2022-11-07T07:19:05.004Z,13.87
2022-11-07T07:21:31.517Z,13.92
2022-11-07T07:23:58.036Z,13.97
2022-11-07T07:26:24.540Z,13.88
2022-11-07T07:28:51.120Z,13.87
2022-11-07T07:31:19.550Z,13.92
2022-11-07T07:33:46.850Z,13.97
2022-11-07T07:36:19.291Z,14.09
2022-11-07T07:38:49.754Z,14.22
2022-11-07T07:41:16.491Z,14.36
2022-11-07T07:43:45.344Z,14.51
2022-11-07T07:46:16.832Z,14.65
2022-11-07T07:48:43.465Z,14.77
2022-11-07T07:51:10.006Z,14.91
2022-11-07T07:53:36.537Z,15.00
2022-11-07T07:56:05.601Z,15.10
2022-11-07T07:58:32.155Z,15.17
2022-11-07T08:01:01.106Z,15.21
2022-11-07T08:03:31.949Z,15.27
2022-11-07T08:05:58.902Z,15.26
2022-11-07T08:08:27.881Z,15.12
2022-11-07T08:11:00.018Z,14.86
2022-11-07T08:13:31.947Z,14.47
2022-11-07T08:15:58.612Z,14.28
2022-11-07T08:18:27.458Z,14.23
2022-11-07T08:20:54.448Z,14.13
2022-11-07T08:23:21.520Z,13.83
2022-11-07T08:26:06.766Z,13.60
2022-11-07T08:28:36.139Z,13.41
2022-11-07T08:31:03.127Z,13.24
2022-11-07T08:33:29.753Z,13.22
2022-11-07T08:35:56.929Z,13.36
2022-11-07T08:38:23.700Z,13.52
2022-11-07T08:40:50.654Z,13.64
2022-11-07T08:43:19.979Z,13.81
2022-11-07T08:45:47.669Z,13.92
2022-11-07T08:48:14.761Z,13.87
2022-11-07T08:50:43.715Z,13.88
2022-11-07T08:53:10.316Z,13.80
2022-11-07T08:55:36.932Z,13.85
2022-11-07T08:58:07.215Z,13.81
2022-11-07T09:00:34.595Z,13.81
2022-11-07T09:05:48.890Z,13.69
2022-11-07T09:08:15.418Z,13.72
2022-11-07T09:10:42.073Z,13.85
2022-11-07T09:13:08.632Z,14.14
2022-11-07T09:15:35.285Z,14.09
2022-11-07T09:18:02.987Z,14.15
2022-11-07T09:20:32.025Z,14.11
2022-11-07T09:23:00.983Z,13.91
2022-11-07T09:25:27.592Z,13.92
2022-11-07T09:27:54.561Z,13.96
2022-11-07T09:30:23.507Z,14.02
2022-11-07T09:32:55.469Z,14.06
2022-11-07T09:35:22.116Z,14.10
2022-11-07T09:37:49.955Z,14.16
2022-11-07T09:40:19.593Z,14.18
2022-11-07T09:42:54.294Z,14.26
2022-11-07T09:45:20.810Z,14.39
2022-11-07T09:47:48.433Z,14.49
2022-11-07T09:50:36.800Z,14.40
2022-11-07T09:53:33.155Z,14.51
2022-11-07T09:56:00.688Z,14.49
2022-11-07T09:58:30.302Z,14.63
2022-11-07T10:00:59.777Z,14.87
2022-11-07T10:03:26.512Z,14.99
2022-11-07T10:05:56.260Z,15.04
2022-11-07T10:08:22.735Z,15.14
2022-11-07T10:10:49.378Z,15.33
2022-11-07T10:13:16.192Z,15.36
2022-11-07T10:15:47.921Z,15.27
2022-11-07T10:18:33.219Z,15.23
2022-11-07T10:21:31.255Z,15.30
2022-11-07T10:23:49.228Z,15.34
2022-11-07T10:26:17.484Z,15.24
2022-11-07T10:28:45.317Z,15.00
2022-11-07T10:31:12.719Z,14.63
2022-11-07T10:33:41.195Z,14.39
2022-11-07T10:36:20.299Z,13.95
2022-11-07T10:38:46.965Z,13.64
2022-11-07T10:41:24.191Z,13.55
2022-11-07T10:44:14.314Z,13.60
2022-11-07T10:46:43.242Z,13.79
2022-11-07T10:49:20.076Z,13.95
2022-11-07T10:51:49.175Z,13.92
2022-11-07T10:54:22.499Z,13.83
2022-11-07T10:56:54.359Z,13.83
2022-11-07T10:59:23.450Z,13.94
2022-11-07T11:01:50.785Z,13.80
2022-11-07T11:04:23.765Z,13.79
2022-11-07T11:07:00.267Z,13.72
2022-11-07T11:09:34.092Z,13.61
2022-11-07T11:12:07.233Z,13.57
2022-11-07T11:14:36.276Z,13.56
2022-11-07T11:17:04.915Z,13.53
2022-11-07T11:19:43.226Z,13.46
2022-11-07T11:22:11.943Z,13.39
2022-11-07T11:24:38.668Z,13.29
2022-11-07T11:27:15.922Z,13.28
2022-11-07T11:29:48.729Z,13.26
2022-11-07T11:32:30.619Z,13.22
2022-11-07T11:34:57.191Z,13.30
2022-11-07T11:37:24.118Z,13.27
2022-11-07T11:40:02.501Z,13.29
2022-11-07T11:42:50.467Z,13.32
2022-11-07T11:45:17.169Z,13.21
2022-11-07T11:47:48.400Z,13.17
2022-11-07T11:50:18.681Z,13.02
2022-11-07T11:52:45.375Z,12.85
2022-11-07T11:55:16.194Z,12.87
2022-11-07T11:57:55.054Z,12.84
2022-11-07T12:00:24.635Z,12.77
2022-11-07T12:03:00.395Z,12.78
2022-11-07T12:05:29.681Z,12.72
2022-11-07T12:08:12.522Z,12.77
2022-11-07T12:10:44.257Z,12.90
2022-11-07T12:13:17.121Z,13.07
2022-11-07T12:15:52.630Z,13.33
2022-11-07T12:18:27.784Z,13.54
2022-11-07T12:21:02.783Z,13.74
2022-11-07T12:23:47.760Z,13.87
2022-11-07T12:26:20.343Z,14.12
2022-11-07T12:28:49.235Z,14.36
2022-11-07T12:31:26.902Z,14.61
2022-11-07T12:33:56.431Z,14.78
2022-11-07T12:36:37.666Z,14.91
2022-11-07T12:39:07.445Z,14.75
2022-11-07T12:41:49.585Z,14.70
2022-11-07T12:44:19.178Z,14.89
2022-11-07T12:46:53.162Z,15.11
2022-11-07T12:49:38.590Z,15.57
2022-11-07T12:52:11.759Z,15.91
2022-11-07T12:54:38.300Z,16.26
2022-11-07T12:57:27.494Z,16.40
2022-11-07T13:00:13.025Z,16.39
2022-11-07T13:02:51.181Z,16.21
2022-11-07T13:05:20.775Z,16.28
2022-11-07T13:07:55.982Z,16.42
2022-11-07T13:10:44.362Z,16.48
2022-11-07T13:13:12.502Z,16.52
2022-11-07T13:16:09.043Z,16.23
2022-11-07T13:18:26.510Z,16.20
2022-11-07T13:21:00.009Z,16.01
2022-11-07T13:23:28.979Z,15.96
2022-11-07T13:25:59.457Z,15.94
2022-11-07T13:28:39.479Z,15.97
2022-11-07T13:31:26.031Z,15.97
2022-11-07T13:33:59.470Z,15.93
2022-11-07T13:36:33.079Z,15.94
2022-11-07T13:39:02.010Z,15.98
2022-11-07T13:41:28.530Z,16.06
2022-11-07T13:43:59.561Z,16.14
2022-11-07T13:46:35.970Z,16.28
2022-11-07T13:49:14.747Z,16.39
2022-11-07T13:51:45.619Z,16.52
2022-11-07T13:54:12.503Z,16.64
2022-11-07T13:56:44.113Z,16.69
2022-11-07T13:59:12.581Z,17.14
2022-11-07T14:01:45.286Z,18.00
2022-11-07T14:04:13.152Z,18.25
2022-11-07T14:06:40.177Z,18.77
2022-11-07T14:09:09.227Z,19.29
2022-11-07T14:11:35.834Z,19.83
2022-11-07T14:14:02.449Z,20.38
2022-11-07T14:16:31.868Z,20.44
2022-11-07T14:18:59.410Z,20.14
2022-11-07T14:21:30.255Z,19.17
2022-11-07T14:23:59.356Z,18.03
2022-11-07T14:26:32.981Z,17.26
2022-11-07T14:29:04.962Z,16.72
2022-11-07T14:31:33.002Z,16.50
2022-11-07T14:34:01.154Z,16.17
2022-11-07T14:36:28.185Z,15.94
2022-11-07T14:39:05.166Z,15.59
2022-11-07T14:41:31.783Z,15.39
2022-11-07T14:44:00.119Z,15.21
2022-11-07T14:46:26.849Z,14.98
2022-11-07T14:48:53.486Z,14.91
2022-11-07T14:51:29.097Z,14.80
2022-11-07T14:54:01.541Z,14.63
2022-11-07T14:56:43.688Z,14.49
2022-11-07T14:59:16.684Z,14.37
2022-11-07T15:01:53.501Z,14.36
2022-11-07T15:04:26.319Z,14.27
2022-11-07T15:06:52.880Z,14.19
2022-11-07T15:09:33.108Z,14.09
2022-11-07T15:12:00.214Z,13.89
2022-11-07T15:14:34.891Z,13.70
2022-11-07T15:17:04.246Z,13.50
2022-11-07T15:19:31.708Z,13.41
2022-11-07T15:22:01.418Z,13.40
2022-11-07T15:24:38.661Z,13.38
2022-11-07T15:27:17.362Z,13.33
2022-11-07T15:29:53.718Z,13.21
2022-11-07T15:32:23.844Z,13.11
2022-11-07T15:35:07.905Z,13.05
2022-11-07T15:37:37.595Z,12.94
2022-11-07T15:40:12.501Z,12.86
2022-11-07T15:42:39.084Z,12.72
2022-11-07T15:45:08.435Z,12.65
2022-11-07T15:47:34.999Z,12.56
2022-11-07T15:50:01.720Z,12.43
2022-11-07T15:52:33.162Z,12.35
2022-11-07T15:54:59.723Z,12.30
2022-11-07T15:57:26.314Z,12.28
2022-11-07T15:59:52.911Z,12.30
2022-11-07T16:02:19.738Z,12.28
2022-11-07T16:04:54.184Z,12.31
2022-11-07T16:07:20.801Z,12.33
2022-11-07T16:09:48.817Z,12.29
2022-11-07T16:12:21.669Z,12.24
2022-11-07T16:14:48.319Z,12.23
2022-11-07T16:17:15.576Z,12.22
2022-11-07T16:19:42.192Z,12.24
2022-11-07T16:22:12.269Z,12.31
2022-11-07T16:24:38.847Z,12.36
2022-11-07T16:27:09.818Z,12.43
2022-11-07T16:29:39.348Z,12.45
2022-11-07T16:32:05.887Z,12.44
2022-11-07T16:34:35.047Z,12.42
2022-11-07T16:37:01.609Z,12.43
2022-11-07T16:39:28.298Z,12.44
2022-11-07T16:41:59.843Z,12.50
2022-11-07T16:44:26.726Z,12.55
2022-11-07T16:46:54.312Z,12.54
2022-11-07T16:49:26.111Z,12.57
2022-11-07T16:51:53.053Z,12.54
2022-11-07T16:54:22.129Z,12.59
2022-11-07T16:56:51.843Z,12.61
2022-11-07T16:59:22.828Z,12.57
2022-11-07T17:01:50.152Z,12.56
2022-11-07T17:04:16.842Z,12.45
2022-11-07T17:06:48.876Z,12.38
2022-11-07T17:09:24.863Z,12.43
2022-11-07T17:11:51.442Z,12.41
2022-11-07T17:14:18.163Z,12.25
2022-11-07T17:16:45.371Z,12.24
2022-11-07T17:19:12.111Z,12.23
2022-11-07T17:21:43.789Z,12.18
2022-11-07T17:24:13.616Z,12.10
2022-11-07T17:26:40.197Z,12.04
2022-11-07T17:29:07.269Z,12.00
2022-11-07T17:31:33.935Z,11.95
2022-11-07T17:34:00.480Z,12.01
2022-11-07T17:36:36.767Z,12.06
2022-11-07T17:39:05.817Z,12.11
2022-11-07T17:41:32.355Z,12.12
2022-11-07T17:44:01.464Z,12.14
2022-11-07T17:46:30.101Z,12.14
2022-11-07T17:49:00.829Z,12.13
2022-11-07T17:51:27.683Z,12.12
2022-11-07T17:53:54.674Z,12.03
2022-11-07T17:56:22.386Z,11.93
2022-11-07T17:58:49.236Z,11.93
2022-11-07T18:01:23.193Z,11.93
2022-11-07T18:03:50.344Z,11.90
2022-11-07T18:06:23.072Z,11.90
2022-11-07T18:08:53.489Z,11.90
2022-11-07T18:11:30.637Z,11.76
2022-11-07T18:13:57.732Z,11.72
2022-11-07T18:16:25.847Z,11.72
2022-11-07T18:18:54.570Z,11.72
2022-11-07T18:21:21.139Z,11.71
2022-11-07T18:23:48.088Z,11.70
2022-11-07T18:26:25.777Z,11.66
2022-11-07T18:28:55.460Z,11.62
2022-11-07T18:31:22.655Z,11.55
2022-11-07T18:33:52.824Z,11.57
2022-11-07T18:36:19.773Z,11.56
2022-11-07T18:38:47.297Z,11.54
2022-11-07T18:41:15.379Z,11.53
2022-11-07T18:43:42.066Z,11.52
2022-11-07T18:46:10.102Z,11.51
2022-11-07T18:48:38.934Z,11.51
2022-11-07T18:51:09.756Z,11.50
2022-11-07T18:53:40.005Z,11.49
2022-11-07T18:56:07.323Z,11.46
2022-11-07T18:58:36.518Z,11.38
2022-11-07T19:01:07.553Z,11.35
2022-11-07T19:03:34.437Z,11.32
2022-11-07T19:06:04.505Z,11.32
2022-11-07T19:08:32.051Z,11.28
2022-11-07T19:10:59.365Z,11.26
2022-11-07T19:13:28.872Z,11.26
2022-11-07T19:16:01.006Z,11.14
2022-11-07T19:18:32.376Z,10.96
2022-11-07T19:20:59.490Z,10.84
2022-11-07T19:23:26.192Z,10.70
2022-11-07T19:25:53.191Z,10.68
2022-11-07T19:28:19.754Z,10.57
2022-11-07T19:30:46.383Z,10.46
2022-11-07T19:33:16.432Z,10.46
2022-11-07T19:35:43.415Z,10.49
2022-11-07T19:38:10.082Z,10.58
2022-11-07T19:40:39.374Z,10.66
2022-11-07T19:43:06.309Z,10.70
2022-11-07T19:45:33.047Z,10.75
2022-11-07T19:47:59.679Z,10.78
2022-11-07T19:50:26.451Z,10.81
2022-11-07T19:52:53.089Z,10.84
2022-11-07T19:55:22.589Z,10.85
2022-11-07T19:57:51.532Z,10.86
2022-11-07T20:00:18.934Z,10.84
2022-11-07T20:02:51.809Z,10.84
2022-11-07T20:05:24.269Z,10.84
2022-11-07T20:07:57.102Z,10.84
2022-11-07T20:10:29.687Z,10.83
2022-11-07T20:12:56.448Z,10.79
2022-11-07T20:15:23.016Z,10.69
2022-11-07T20:17:49.753Z,10.60
2022-11-07T20:20:16.295Z,10.57
2022-11-07T20:22:48.750Z,10.57
2022-11-07T20:25:15.362Z,10.57
2022-11-07T20:27:41.961Z,10.55
2022-11-07T20:30:11.280Z,10.56
2022-11-07T20:32:39.272Z,10.56
2022-11-07T20:35:06.637Z,10.57
2022-11-07T20:37:33.223Z,10.56
2022-11-07T20:40:02.219Z,10.52
2022-11-07T20:42:31.308Z,10.53
2022-11-07T20:44:57.855Z,10.53
2022-11-07T20:47:25.042Z,10.52
2022-11-07T20:49:54.017Z,10.40
2022-11-07T20:52:24.033Z,10.40
2022-11-07T20:54:55.367Z,10.39
2022-11-07T20:57:26.105Z,10.39
2022-11-07T20:59:54.958Z,10.24
2022-11-07T21:02:26.427Z,10.15
2022-11-07T21:05:16.253Z,10.12
2022-11-07T21:07:39.718Z,10.10
2022-11-07T21:10:08.710Z,10.13
2022-11-07T21:12:35.343Z,10.11
2022-11-07T21:15:01.959Z,10.11
2022-11-07T21:17:28.774Z,10.12
2022-11-07T21:20:03.004Z,10.12
2022-11-07T21:22:31.991Z,10.10
2022-11-07T21:25:00.930Z,10.10
2022-11-07T21:27:27.425Z,10.09
2022-11-07T21:29:54.001Z,10.08
2022-11-07T21:32:20.566Z,10.04
2022-11-07T21:34:50.183Z,10.01
2022-11-07T21:37:19.226Z,9.98
2022-11-07T21:39:45.732Z,9.98
2022-11-07T21:42:12.840Z,9.96
2022-11-07T21:44:39.440Z,9.95
2022-11-07T21:47:08.974Z,9.92
2022-11-07T21:49:35.558Z,9.90
2022-11-07T21:52:02.384Z,9.89
2022-11-07T21:54:29.077Z,9.88
2022-11-07T21:56:58.215Z,9.88
2022-11-07T21:59:24.749Z,9.88
2022-11-07T22:01:54.308Z,9.88
2022-11-07T22:04:23.629Z,9.86
2022-11-07T22:06:51.609Z,9.81
2022-11-07T22:09:19.822Z,9.81
2022-11-07T22:11:49.406Z,9.81
2022-11-07T22:14:20.383Z,9.82
2022-11-07T22:16:47.276Z,9.84
2022-11-07T22:19:14.061Z,9.85
2022-11-07T22:21:40.930Z,9.86
2022-11-07T22:24:07.829Z,9.84
2022-11-07T22:26:34.365Z,9.85
2022-11-07T22:29:00.962Z,9.84
2022-11-07T22:31:30.119Z,9.85
2022-11-07T22:34:01.876Z,9.88
2022-11-07T22:36:28.813Z,9.88
2022-11-07T22:39:00.867Z,9.86
2022-11-07T22:41:32.278Z,9.85
2022-11-07T22:43:58.874Z,9.84
2022-11-07T22:46:31.564Z,9.82
2022-11-07T22:49:01.217Z,9.69
2022-11-07T22:51:31.439Z,9.66
2022-11-07T22:54:02.282Z,9.65
2022-11-07T22:56:29.499Z,9.66
2022-11-07T22:58:58.986Z,9.68
2022-11-07T23:01:26.863Z,9.69
2022-11-07T23:03:53.816Z,9.68
2022-11-07T23:06:20.642Z,9.66
2022-11-07T23:08:47.702Z,9.64
2022-11-07T23:14:06.576Z,9.63
2022-11-07T23:16:36.495Z,9.59
2022-11-07T23:19:03.956Z,9.57
2022-11-07T23:21:33.039Z,9.55
2022-11-07T23:23:59.982Z,9.50
2022-11-07T23:26:35.669Z,9.48
2022-11-07T23:29:10.879Z,9.45
2022-11-07T23:31:41.773Z,9.41
2022-11-07T23:34:10.861Z,9.39
2022-11-07T23:36:37.608Z,9.37
2022-11-07T23:39:05.101Z,9.35
2022-11-07T23:41:34.055Z,9.32
2022-11-07T23:44:02.989Z,9.29
2022-11-07T23:46:52.753Z,9.24
2022-11-07T23:49:40.160Z,9.19
2022-11-07T23:52:06.756Z,9.11
2022-11-07T23:54:51.960Z,9.09
2022-11-07T23:57:20.687Z,9.09
